createdAt,value
2017-08-07T00:00:02.920Z,97734.33
2017-08-07T00:04:50.025Z,97730.81
2017-08-07T00:09:37.404Z,97726.00
2017-08-07T00:14:24.113Z,97733.33
2017-08-07T00:19:10.827Z,97720.86
2017-08-07T00:23:57.450Z,97727.92
2017-08-07T00:28:44.413Z,97734.23
2017-08-07T00:33:31.010Z,97732.73
2017-08-07T00:38:17.742Z,97740.38
2017-08-07T00:43:04.381Z,97738.19
2017-08-07T00:47:51.102Z,97740.11
2017-08-07T00:52:37.728Z,97734.30
2017-08-07T00:57:24.497Z,97732.72
2017-08-07T01:02:11.119Z,97734.27
2017-08-07T01:06:58.080Z,97719.59
2017-08-07T01:11:44.693Z,97714.94
2017-08-07T01:16:31.304Z,97715.73
2017-08-07T01:21:18.034Z,97716.62
2017-08-07T01:26:04.726Z,97711.03
2017-08-07T01:30:51.750Z,97719.72
2017-08-07T01:35:38.357Z,97720.79
2017-08-07T01:40:25.756Z,97715.44
2017-08-07T01:45:12.465Z,97712.14
2017-08-07T01:49:59.175Z,97708.03
2017-08-07T01:54:45.914Z,97703.84
2017-08-07T01:59:32.941Z,97699.39
2017-08-07T02:04:19.545Z,97697.62
2017-08-07T02:09:06.189Z,97692.13
2017-08-07T02:13:52.878Z,97697.47
2017-08-07T02:18:39.626Z,97695.95
2017-08-07T02:23:26.258Z,97693.70
2017-08-07T02:28:12.882Z,97686.59
2017-08-07T02:32:59.497Z,97674.34
2017-08-07T02:37:46.434Z,97674.22
2017-08-07T02:42:33.059Z,97672.22
2017-08-07T02:47:19.661Z,97668.87
2017-08-07T02:52:06.253Z,97660.93
2017-08-07T02:56:52.864Z,97674.00
2017-08-07T03:01:39.819Z,97669.75
2017-08-07T03:06:26.432Z,97665.53
2017-08-07T03:11:13.169Z,97661.22
2017-08-07T03:16:00.757Z,97666.70
2017-08-07T03:20:48.138Z,97658.02
2017-08-07T03:25:34.745Z,97655.27
2017-08-07T03:30:21.835Z,97647.17
2017-08-07T03:35:09.201Z,97656.42
2017-08-07T03:39:55.909Z,97657.61
2017-08-07T03:44:42.614Z,97658.45
2017-08-07T03:49:29.245Z,97650.41
2017-08-07T03:54:16.629Z,97651.58
2017-08-07T03:59:03.520Z,97654.97
2017-08-07T04:03:50.236Z,97654.39
2017-08-07T04:08:37.128Z,97651.38
2017-08-07T04:13:23.883Z,97645.81
2017-08-07T04:18:10.570Z,97653.62
2017-08-07T04:22:57.205Z,97647.30
2017-08-07T04:27:44.836Z,97644.14
2017-08-07T04:32:32.105Z,97654.06
2017-08-07T04:37:18.777Z,97648.14
2017-08-07T04:42:05.399Z,97656.37
2017-08-07T04:46:52.082Z,97649.92
2017-08-07T04:51:38.744Z,97643.05
2017-08-07T04:56:25.381Z,97636.09
2017-08-07T05:01:13.193Z,97632.92
2017-08-07T05:05:59.793Z,97637.50
2017-08-07T05:10:46.426Z,97625.88
2017-08-07T05:15:33.064Z,97632.95
2017-08-07T05:20:19.748Z,97637.31
2017-08-07T05:25:06.394Z,97635.45
2017-08-07T05:29:53.026Z,97630.84
2017-08-07T05:34:39.945Z,97625.67
2017-08-07T05:39:26.554Z,97624.30
2017-08-07T05:44:13.162Z,97626.94
2017-08-07T05:48:59.813Z,97625.80
2017-08-07T05:53:46.430Z,97626.17
2017-08-07T05:58:33.076Z,97626.30
2017-08-07T06:03:19.704Z,97613.63
2017-08-07T06:08:07.111Z,97605.63
2017-08-07T06:12:53.717Z,97604.72
2017-08-07T06:17:40.529Z,97604.54
2017-08-07T06:22:27.338Z,97600.87
2017-08-07T06:27:14.079Z,97596.25
2017-08-07T06:32:00.759Z,97588.67
2017-08-07T06:36:48.134Z,97581.32
2017-08-07T06:41:35.190Z,97585.24
2017-08-07T06:46:21.789Z,97578.61
2017-08-07T06:51:08.430Z,97566.92
2017-08-07T06:55:55.073Z,97573.44
2017-08-07T07:00:41.875Z,97562.37
2017-08-07T07:05:28.607Z,97551.23
2017-08-07T07:10:15.527Z,97549.72
2017-08-07T07:15:02.573Z,97542.16
2017-08-07T07:19:49.180Z,97540.67
2017-08-07T07:24:35.821Z,97540.56
2017-08-07T07:29:22.497Z,97535.28
2017-08-07T07:34:09.215Z,97530.55
2017-08-07T07:38:55.956Z,97525.30
2017-08-07T07:43:43.381Z,97520.50
2017-08-07T07:48:30.347Z,97514.28
2017-08-07T07:53:16.976Z,97505.98
2017-08-07T07:58:04.386Z,97510.00
2017-08-07T08:02:51.033Z,97515.87
2017-08-07T08:07:38.403Z,97506.15
2017-08-07T08:12:25.114Z,97509.20
2017-08-07T08:17:11.721Z,97498.55
2017-08-07T08:21:58.405Z,97496.64
2017-08-07T08:26:45.185Z,97494.25
2017-08-07T08:31:31.823Z,97496.38
2017-08-07T08:36:18.465Z,97481.11
2017-08-07T08:41:05.111Z,97478.87
2017-08-07T08:45:51.809Z,97482.12
2017-08-07T08:50:38.437Z,97490.45
2017-08-07T08:55:25.051Z,97488.61
2017-08-07T09:00:11.690Z,97481.41
2017-08-07T09:04:58.342Z,97478.27
2017-08-07T09:09:44.981Z,97475.92
2017-08-07T09:14:31.885Z,97472.87
2017-08-07T09:19:18.473Z,97467.09
2017-08-07T09:24:05.116Z,97454.98
2017-08-07T09:28:52.535Z,97453.26
2017-08-07T09:33:39.172Z,97445.87
2017-08-07T09:38:26.536Z,97436.69
2017-08-07T09:43:13.503Z,97434.45
2017-08-07T09:48:00.244Z,97427.08
2017-08-07T09:52:46.928Z,97423.95
2017-08-07T09:57:33.621Z,97417.78
2017-08-07T10:02:20.349Z,97406.42
2017-08-07T10:07:06.974Z,97401.22
2017-08-07T10:11:53.914Z,97393.95
2017-08-07T10:16:40.505Z,97392.02
2017-08-07T10:21:27.144Z,97387.13
2017-08-07T10:26:13.875Z,97378.76
2017-08-07T10:31:00.821Z,97371.96
2017-08-07T10:35:47.453Z,97385.25
2017-08-07T10:40:34.578Z,97374.05
2017-08-07T10:45:21.173Z,97372.30
2017-08-07T10:50:07.797Z,97359.20
2017-08-07T10:54:54.548Z,97360.20
2017-08-07T10:59:41.301Z,97355.42
2017-08-07T11:04:28.678Z,97339.86
2017-08-07T11:09:15.304Z,97344.72
2017-08-07T11:14:02.253Z,97337.50
2017-08-07T11:18:48.925Z,97338.48
2017-08-07T11:23:35.689Z,97342.43
2017-08-07T11:28:22.562Z,97341.20
2017-08-07T11:33:09.240Z,97337.62
2017-08-07T11:37:55.871Z,97329.80
2017-08-07T11:42:42.494Z,97332.34
2017-08-07T11:47:29.707Z,97325.25
2017-08-07T11:52:16.430Z,97326.59
2017-08-07T11:57:03.161Z,97319.81
2017-08-07T12:01:49.829Z,97316.56
2017-08-07T12:06:36.468Z,97310.34
2017-08-07T12:11:23.347Z,97296.14
2017-08-07T12:16:10.002Z,97283.56
2017-08-07T12:20:56.666Z,97288.42
2017-08-07T12:25:43.259Z,97280.92
2017-08-07T12:30:30.001Z,97288.50
2017-08-07T12:35:16.828Z,97284.06
2017-08-07T12:40:03.867Z,97287.34
2017-08-07T12:44:50.482Z,97280.09
2017-08-07T12:49:37.117Z,97278.84
2017-08-07T12:54:23.731Z,97269.02
2017-08-07T12:59:10.549Z,97272.13
2017-08-07T13:03:57.216Z,97262.85
2017-08-07T13:08:43.886Z,97266.58
2017-08-07T13:13:30.930Z,97253.74
2017-08-07T13:18:17.568Z,97248.25
2017-08-07T13:23:04.993Z,97247.04
2017-08-07T13:27:51.667Z,97242.25
2017-08-07T13:32:38.312Z,97240.48
2017-08-07T13:37:24.940Z,97240.06
2017-08-07T13:42:11.601Z,97236.92
2017-08-07T13:46:58.585Z,97239.98
2017-08-07T13:51:45.190Z,97235.54
2017-08-07T13:56:32.002Z,97232.39
2017-08-07T14:01:18.644Z,97227.07
2017-08-07T14:06:05.268Z,97214.56
2017-08-07T14:10:51.909Z,97220.98
2017-08-07T14:15:38.914Z,97221.89
2017-08-07T14:20:25.534Z,97212.76
2017-08-07T14:25:12.166Z,97217.51
2017-08-07T14:29:58.864Z,97213.34
2017-08-07T14:34:45.468Z,97200.66
2017-08-07T14:39:32.089Z,97197.80
2017-08-07T14:44:18.735Z,97199.78
2017-08-07T14:49:05.968Z,97189.32
2017-08-07T14:53:52.691Z,97181.94
2017-08-07T14:58:39.380Z,97185.95
2017-08-07T15:03:25.997Z,97184.41
2017-08-07T15:08:12.651Z,97177.20
2017-08-07T15:12:59.482Z,97176.50
2017-08-07T15:17:46.526Z,97176.35
2017-08-07T15:22:33.154Z,97172.66
2017-08-07T15:27:20.586Z,97166.19
2017-08-07T15:32:07.292Z,97165.54
2017-08-07T15:36:54.049Z,97162.95
2017-08-07T15:41:41.516Z,97156.64
2017-08-07T15:46:28.484Z,97158.14
2017-08-07T15:51:16.685Z,97155.83
2017-08-07T15:56:03.325Z,97145.14
2017-08-07T16:00:49.963Z,97137.05
2017-08-07T16:05:36.598Z,97138.69
2017-08-07T16:10:23.338Z,97133.48
2017-08-07T16:15:10.054Z,97141.64
2017-08-07T16:19:57.171Z,97133.18
2017-08-07T16:24:43.802Z,97135.37
2017-08-07T16:29:30.460Z,97129.72
2017-08-07T16:34:17.129Z,97119.03
2017-08-07T16:39:03.784Z,97114.75
2017-08-07T16:43:51.337Z,97108.88
2017-08-07T16:48:38.751Z,97105.67
2017-08-07T16:53:25.914Z,97106.56
2017-08-07T16:58:12.541Z,97108.14
2017-08-07T17:02:59.210Z,97109.30
2017-08-07T17:07:46.046Z,97100.05
2017-08-07T17:12:32.721Z,97102.02
2017-08-07T17:17:19.375Z,97093.77
2017-08-07T17:22:06.097Z,97104.52
2017-08-07T17:26:52.727Z,97098.81
2017-08-07T17:31:39.436Z,97100.14
2017-08-07T17:36:26.160Z,97101.17
2017-08-07T17:41:12.818Z,97101.45
2017-08-07T17:46:00.544Z,97099.77
2017-08-07T17:50:47.995Z,97097.19
2017-08-07T17:55:35.376Z,97099.83
2017-08-07T18:00:22.208Z,97103.97
2017-08-07T18:05:08.866Z,97096.94
2017-08-07T18:09:55.569Z,97100.92
2017-08-07T18:14:42.208Z,97094.64
2017-08-07T18:19:29.231Z,97088.66
2017-08-07T18:24:16.042Z,97093.56
2017-08-07T18:29:02.765Z,97090.59
2017-08-07T18:33:49.450Z,97093.82
2017-08-07T18:38:36.128Z,97093.27
2017-08-07T18:43:22.931Z,97087.52
2017-08-07T18:48:09.938Z,97084.44
2017-08-07T18:52:56.596Z,97084.16
2017-08-07T18:57:43.509Z,97081.56
2017-08-07T19:02:31.192Z,97077.39
2017-08-07T19:07:18.753Z,97087.39
2017-08-07T19:12:05.428Z,97089.76
2017-08-07T19:16:52.471Z,97091.06
2017-08-07T19:21:39.898Z,97090.45
2017-08-07T19:26:26.652Z,97073.91
2017-08-07T19:31:14.005Z,97084.73
2017-08-07T19:36:00.730Z,97075.33
2017-08-07T19:40:47.377Z,97085.66
2017-08-07T19:45:34.120Z,97078.54
2017-08-07T19:50:20.809Z,97077.17
2017-08-07T19:55:07.891Z,97079.20
2017-08-07T19:59:55.273Z,97081.33
2017-08-07T20:04:42.128Z,97077.50
2017-08-07T20:09:28.825Z,97072.01
2017-08-07T20:14:15.485Z,97064.13
2017-08-07T20:19:02.153Z,97067.09
2017-08-07T20:23:48.853Z,97063.01
2017-08-07T20:28:36.497Z,97062.72
2017-08-07T20:33:24.384Z,97058.87
2017-08-07T20:38:11.091Z,97061.70
2017-08-07T20:42:57.773Z,97050.50
2017-08-07T20:47:45.178Z,97048.54
2017-08-07T20:52:31.925Z,97052.69
2017-08-07T20:57:18.762Z,97050.20
2017-08-07T21:02:06.784Z,97039.59
2017-08-07T21:06:53.430Z,97037.35
2017-08-07T21:11:40.082Z,97029.53
2017-08-07T21:16:26.720Z,97032.30
2017-08-07T21:21:13.363Z,97035.77
2017-08-07T21:26:00.014Z,97034.88
2017-08-07T21:30:47.474Z,97030.98
2017-08-07T21:35:35.185Z,97022.95
2017-08-07T21:40:21.965Z,97028.97
2017-08-07T21:45:08.701Z,97025.22
2017-08-07T21:49:55.346Z,97023.60
2017-08-07T21:54:42.001Z,97019.95
2017-08-07T21:59:29.410Z,97010.02
2017-08-07T22:04:16.177Z,97007.91
2017-08-07T22:09:02.780Z,97009.59
2017-08-07T22:13:56.381Z,97005.20
2017-08-07T22:18:43.009Z,97007.80
2017-08-07T22:23:29.629Z,96996.27
2017-08-07T22:28:16.350Z,96990.97
2017-08-07T22:33:02.980Z,96990.77
2017-08-07T22:37:49.652Z,96984.61
2017-08-07T22:42:37.163Z,96979.17
2017-08-07T22:47:24.205Z,96972.98
2017-08-07T22:52:10.923Z,96965.42
2017-08-07T22:56:57.583Z,96962.22
2017-08-07T23:01:44.952Z,96966.08
2017-08-07T23:06:31.583Z,96960.63
2017-08-07T23:11:18.248Z,96962.77
2017-08-07T23:16:05.976Z,96957.93
2017-08-07T23:20:52.596Z,96955.62
2017-08-07T23:25:39.221Z,96948.71
2017-08-07T23:30:25.857Z,96949.92
2017-08-07T23:35:13.234Z,96947.28
2017-08-07T23:39:59.862Z,96931.84
2017-08-07T23:44:46.482Z,96920.77
2017-08-07T23:49:33.435Z,96906.60
2017-08-07T23:54:20.040Z,96908.88
2017-08-07T23:59:06.702Z,96915.37
